sensor_id;sensor_type;location;lat;lon;timestamp;P1;durP1;ratioP1;P2;durP2;ratioP2
43771;SDS011;59066;54.782;32.024;2022-11-15T00:01:47;3.15;;;2.42;;
43771;SDS011;59066;54.782;32.024;2022-11-15T00:04:33;5.33;;;2.13;;
43771;SDS011;59066;54.782;32.024;2022-11-15T00:07:19;2.30;;;1.70;;
43771;SDS011;59066;54.782;32.024;2022-11-15T00:10:25;4.05;;;2.00;;
43771;SDS011;59066;54.782;32.024;2022-11-15T00:13:12;2.85;;;1.85;;
43771;SDS011;59066;54.782;32.024;2022-11-15T00:15:59;4.45;;;2.20;;
43771;SDS011;59066;54.782;32.024;2022-11-15T00:18:46;2.85;;;2.00;;
43771;SDS011;59066;54.782;32.024;2022-11-15T00:21:34;3.05;;;2.10;;
43771;SDS011;59066;54.782;32.024;2022-11-15T00:24:20;2.70;;;2.30;;
43771;SDS011;59066;54.782;32.024;2022-11-15T00:27:06;3.33;;;2.22;;
43771;SDS011;59066;54.782;32.024;2022-11-15T00:29:52;4.37;;;2.40;;
43771;SDS011;59066;54.782;32.024;2022-11-15T00:32:39;2.35;;;1.98;;
43771;SDS011;59066;54.782;32.024;2022-11-15T00:35:25;2.60;;;1.87;;
43771;SDS011;59066;54.782;32.024;2022-11-15T00:38:11;3.75;;;1.92;;
43771;SDS011;59066;54.782;32.024;2022-11-15T00:40:57;2.40;;;1.77;;
43771;SDS011;59066;54.782;32.024;2022-11-15T00:43:43;3.15;;;1.90;;
43771;SDS011;59066;54.782;32.024;2022-11-15T00:46:29;2.70;;;1.75;;
43771;SDS011;59066;54.782;32.024;2022-11-15T00:49:15;3.60;;;2.17;;
43771;SDS011;59066;54.782;32.024;2022-11-15T00:52:01;9.18;;;4.03;;
43771;SDS011;59066;54.782;32.024;2022-11-15T00:54:47;4.38;;;2.35;;
43771;SDS011;59066;54.782;32.024;2022-11-15T00:57:33;2.17;;;1.97;;
43771;SDS011;59066;54.782;32.024;2022-11-15T01:00:19;3.47;;;2.65;;
43771;SDS011;59066;54.782;32.024;2022-11-15T01:03:06;4.90;;;2.10;;
43771;SDS011;59066;54.782;32.024;2022-11-15T01:05:51;24.42;;;3.42;;
43771;SDS011;59066;54.782;32.024;2022-11-15T01:08:38;4.18;;;2.25;;
43771;SDS011;59066;54.782;32.024;2022-11-15T01:11:25;3.05;;;1.88;;
43771;SDS011;59066;54.782;32.024;2022-11-15T01:14:11;3.90;;;2.28;;
43771;SDS011;59066;54.782;32.024;2022-11-15T01:16:57;4.65;;;2.40;;
43771;SDS011;59066;54.782;32.024;2022-11-15T01:19:42;4.75;;;2.40;;
43771;SDS011;59066;54.782;32.024;2022-11-15T01:22:28;2.92;;;1.88;;
43771;SDS011;59066;54.782;32.024;2022-11-15T01:25:14;3.33;;;2.00;;
43771;SDS011;59066;54.782;32.024;2022-11-15T01:28:00;4.60;;;2.20;;
43771;SDS011;59066;54.782;32.024;2022-11-15T01:30:46;3.53;;;2.40;;
43771;SDS011;59066;54.782;32.024;2022-11-15T01:33:33;6.28;;;2.33;;
43771;SDS011;59066;54.782;32.024;2022-11-15T01:36:21;4.30;;;2.80;;
43771;SDS011;59066;54.782;32.024;2022-11-15T01:39:07;3.30;;;2.30;;
43771;SDS011;59066;54.782;32.024;2022-11-15T01:41:53;3.80;;;2.20;;
43771;SDS011;59066;54.782;32.024;2022-11-15T01:44:49;3.90;;;2.22;;
43771;SDS011;59066;54.782;32.024;2022-11-15T01:47:37;4.03;;;2.40;;
43771;SDS011;59066;54.782;32.024;2022-11-15T01:50:29;3.65;;;2.50;;
43771;SDS011;59066;54.782;32.024;2022-11-15T01:53:17;4.22;;;2.90;;
43771;SDS011;59066;54.782;32.024;2022-11-15T01:56:08;4.30;;;2.28;;
43771;SDS011;59066;54.782;32.024;2022-11-15T01:58:57;4.25;;;2.13;;
43771;SDS011;59066;54.782;32.024;2022-11-15T02:01:46;4.82;;;2.33;;
43771;SDS011;59066;54.782;32.024;2022-11-15T02:04:33;3.80;;;2.63;;
43771;SDS011;59066;54.782;32.024;2022-11-15T02:07:24;3.47;;;2.45;;
43771;SDS011;59066;54.782;32.024;2022-11-15T02:10:12;3.90;;;2.05;;
43771;SDS011;59066;54.782;32.024;2022-11-15T02:13:02;4.47;;;2.78;;
43771;SDS011;59066;54.782;32.024;2022-11-15T02:18:53;3.42;;;2.55;;
43771;SDS011;59066;54.782;32.024;2022-11-15T02:22:22;3.08;;;2.20;;
43771;SDS011;59066;54.782;32.024;2022-11-15T02:28:33;4.55;;;2.53;;
43771;SDS011;59066;54.782;32.024;2022-11-15T02:34:44;6.57;;;2.47;;
43771;SDS011;59066;54.782;32.024;2022-11-15T02:37:47;5.88;;;2.30;;
43771;SDS011;59066;54.782;32.024;2022-11-15T02:40:45;3.53;;;2.22;;
43771;SDS011;59066;54.782;32.024;2022-11-15T02:44:02;4.53;;;2.20;;
43771;SDS011;59066;54.782;32.024;2022-11-15T02:47:15;3.40;;;2.30;;
43771;SDS011;59066;54.782;32.024;2022-11-15T02:52:50;3.88;;;2.38;;
43771;SDS011;59066;54.782;32.024;2022-11-15T02:55:54;14.55;;;3.42;;
43771;SDS011;59066;54.782;32.024;2022-11-15T02:58:47;7.97;;;3.10;;
43771;SDS011;59066;54.782;32.024;2022-11-15T03:05:15;8.70;;;2.45;;
43771;SDS011;59066;54.782;32.024;2022-11-15T03:19:53;6.32;;;3.03;;
43771;SDS011;59066;54.782;32.024;2022-11-15T03:22:42;5.32;;;3.38;;
43771;SDS011;59066;54.782;32.024;2022-11-15T03:25:30;6.47;;;2.90;;
43771;SDS011;59066;54.782;32.024;2022-11-15T03:31:33;7.40;;;2.83;;
43771;SDS011;59066;54.782;32.024;2022-11-15T03:38:26;8.15;;;2.90;;
43771;SDS011;59066;54.782;32.024;2022-11-15T03:43:47;11.25;;;3.08;;
43771;SDS011;59066;54.782;32.024;2022-11-15T03:50:07;5.00;;;3.20;;
43771;SDS011;59066;54.782;32.024;2022-11-15T03:52:58;11.55;;;3.40;;
43771;SDS011;59066;54.782;32.024;2022-11-15T03:55:44;17.87;;;8.13;;
43771;SDS011;59066;54.782;32.024;2022-11-15T03:58:30;6.45;;;2.70;;
43771;SDS011;59066;54.782;32.024;2022-11-15T04:01:16;8.00;;;3.15;;
43771;SDS011;59066;54.782;32.024;2022-11-15T04:04:02;15.75;;;3.97;;
43771;SDS011;59066;54.782;32.024;2022-11-15T04:06:48;12.43;;;3.03;;
43771;SDS011;59066;54.782;32.024;2022-11-15T04:09:34;7.95;;;2.75;;
43771;SDS011;59066;54.782;32.024;2022-11-15T04:12:41;8.45;;;3.05;;
43771;SDS011;59066;54.782;32.024;2022-11-15T04:15:28;18.90;;;4.18;;
43771;SDS011;59066;54.782;32.024;2022-11-15T04:18:15;5.13;;;2.53;;
43771;SDS011;59066;54.782;32.024;2022-11-15T04:21:01;13.00;;;4.07;;
43771;SDS011;59066;54.782;32.024;2022-11-15T04:24:06;16.23;;;6.53;;
43771;SDS011;59066;54.782;32.024;2022-11-15T04:26:57;8.18;;;2.80;;
43771;SDS011;59066;54.782;32.024;2022-11-15T04:29:44;11.27;;;3.50;;
43771;SDS011;59066;54.782;32.024;2022-11-15T04:32:30;10.63;;;3.33;;
43771;SDS011;59066;54.782;32.024;2022-11-15T04:35:16;7.82;;;2.67;;
43771;SDS011;59066;54.782;32.024;2022-11-15T04:38:03;29.43;;;4.27;;
43771;SDS011;59066;54.782;32.024;2022-11-15T04:40:51;13.93;;;3.78;;
43771;SDS011;59066;54.782;32.024;2022-11-15T04:43:37;23.43;;;4.17;;
43771;SDS011;59066;54.782;32.024;2022-11-15T04:46:23;25.85;;;5.40;;
43771;SDS011;59066;54.782;32.024;2022-11-15T04:49:09;29.50;;;6.53;;
43771;SDS011;59066;54.782;32.024;2022-11-15T04:51:55;12.30;;;4.10;;
43771;SDS011;59066;54.782;32.024;2022-11-15T04:54:41;16.25;;;4.30;;
43771;SDS011;59066;54.782;32.024;2022-11-15T04:57:27;13.20;;;4.85;;
43771;SDS011;59066;54.782;32.024;2022-11-15T05:00:15;18.40;;;3.80;;
43771;SDS011;59066;54.782;32.024;2022-11-15T05:03:01;12.98;;;3.40;;
43771;SDS011;59066;54.782;32.024;2022-11-15T05:06:06;21.88;;;6.03;;
43771;SDS011;59066;54.782;32.024;2022-11-15T05:08:52;8.77;;;4.10;;
43771;SDS011;59066;54.782;32.024;2022-11-15T05:11:38;16.23;;;3.80;;
43771;SDS011;59066;54.782;32.024;2022-11-15T05:14:25;19.05;;;5.50;;
43771;SDS011;59066;54.782;32.024;2022-11-15T05:17:10;20.10;;;5.35;;
43771;SDS011;59066;54.782;32.024;2022-11-15T05:19:57;11.83;;;4.37;;
43771;SDS011;59066;54.782;32.024;2022-11-15T05:22:43;15.53;;;5.03;;
43771;SDS011;59066;54.782;32.024;2022-11-15T05:25:29;21.73;;;6.97;;
43771;SDS011;59066;54.782;32.024;2022-11-15T05:28:15;19.38;;;4.05;;
43771;SDS011;59066;54.782;32.024;2022-11-15T05:31:02;10.95;;;4.13;;
43771;SDS011;59066;54.782;32.024;2022-11-15T05:33:49;16.50;;;6.30;;
43771;SDS011;59066;54.782;32.024;2022-11-15T05:36:42;20.40;;;5.32;;
43771;SDS011;59066;54.782;32.024;2022-11-15T05:39:31;19.13;;;5.20;;
43771;SDS011;59066;54.782;32.024;2022-11-15T05:42:17;18.17;;;4.55;;
43771;SDS011;59066;54.782;32.024;2022-11-15T05:45:04;20.33;;;5.00;;
43771;SDS011;59066;54.782;32.024;2022-11-15T05:47:52;12.68;;;5.03;;
43771;SDS011;59066;54.782;32.024;2022-11-15T05:50:41;16.58;;;4.97;;
43771;SDS011;59066;54.782;32.024;2022-11-15T05:53:30;18.30;;;5.93;;
43771;SDS011;59066;54.782;32.024;2022-11-15T05:56:16;8.93;;;4.47;;
43771;SDS011;59066;54.782;32.024;2022-11-15T05:59:02;12.07;;;5.07;;
43771;SDS011;59066;54.782;32.024;2022-11-15T06:01:49;13.30;;;5.45;;
43771;SDS011;59066;54.782;32.024;2022-11-15T06:04:35;18.48;;;5.43;;
43771;SDS011;59066;54.782;32.024;2022-11-15T06:07:21;17.23;;;5.93;;
43771;SDS011;59066;54.782;32.024;2022-11-15T06:10:07;10.57;;;6.32;;
43771;SDS011;59066;54.782;32.024;2022-11-15T06:13:00;9.60;;;4.55;;
43771;SDS011;59066;54.782;32.024;2022-11-15T06:15:47;20.05;;;6.57;;
43771;SDS011;59066;54.782;32.024;2022-11-15T06:18:33;8.73;;;3.40;;
43771;SDS011;59066;54.782;32.024;2022-11-15T06:21:20;12.60;;;6.13;;
43771;SDS011;59066;54.782;32.024;2022-11-15T06:24:06;13.85;;;5.80;;
43771;SDS011;59066;54.782;32.024;2022-11-15T06:26:52;22.17;;;6.15;;
43771;SDS011;59066;54.782;32.024;2022-11-15T06:29:38;12.07;;;5.55;;
43771;SDS011;59066;54.782;32.024;2022-11-15T06:32:24;13.27;;;6.65;;
43771;SDS011;59066;54.782;32.024;2022-11-15T06:35:10;12.52;;;5.03;;
43771;SDS011;59066;54.782;32.024;2022-11-15T06:38:01;19.93;;;6.30;;
43771;SDS011;59066;54.782;32.024;2022-11-15T06:40:48;16.77;;;5.22;;
43771;SDS011;59066;54.782;32.024;2022-11-15T06:43:35;23.27;;;10.32;;
43771;SDS011;59066;54.782;32.024;2022-11-15T06:46:22;8.75;;;4.65;;
43771;SDS011;59066;54.782;32.024;2022-11-15T06:49:08;14.50;;;5.80;;
43771;SDS011;59066;54.782;32.024;2022-11-15T06:51:54;12.52;;;4.60;;
43771;SDS011;59066;54.782;32.024;2022-11-15T06:54:40;10.18;;;5.22;;
43771;SDS011;59066;54.782;32.024;2022-11-15T06:57:26;49.25;;;10.05;;
43771;SDS011;59066;54.782;32.024;2022-11-15T07:00:12;18.45;;;6.43;;
43771;SDS011;59066;54.782;32.024;2022-11-15T07:02:59;31.30;;;7.97;;
43771;SDS011;59066;54.782;32.024;2022-11-15T07:08:39;19.02;;;4.80;;
43771;SDS011;59066;54.782;32.024;2022-11-15T07:11:26;14.63;;;5.35;;
43771;SDS011;59066;54.782;32.024;2022-11-15T07:14:12;24.98;;;7.30;;
43771;SDS011;59066;54.782;32.024;2022-11-15T07:16:58;12.13;;;5.95;;
43771;SDS011;59066;54.782;32.024;2022-11-15T07:19:44;30.13;;;6.45;;
43771;SDS011;59066;54.782;32.024;2022-11-15T07:22:30;20.77;;;6.20;;
43771;SDS011;59066;54.782;32.024;2022-11-15T07:25:16;24.38;;;6.88;;
43771;SDS011;59066;54.782;32.024;2022-11-15T07:28:02;15.13;;;5.90;;
43771;SDS011;59066;54.782;32.024;2022-11-15T07:30:48;16.67;;;5.70;;
43771;SDS011;59066;54.782;32.024;2022-11-15T07:33:34;19.38;;;5.60;;
43771;SDS011;59066;54.782;32.024;2022-11-15T07:36:20;17.70;;;6.90;;
43771;SDS011;59066;54.782;32.024;2022-11-15T07:39:06;17.80;;;7.43;;
43771;SDS011;59066;54.782;32.024;2022-11-15T07:41:52;19.45;;;11.00;;
43771;SDS011;59066;54.782;32.024;2022-11-15T07:44:58;10.50;;;5.65;;
43771;SDS011;59066;54.782;32.024;2022-11-15T07:47:48;45.50;;;8.38;;
43771;SDS011;59066;54.782;32.024;2022-11-15T07:50:35;25.58;;;8.18;;
43771;SDS011;59066;54.782;32.024;2022-11-15T07:53:21;18.45;;;6.47;;
43771;SDS011;59066;54.782;32.024;2022-11-15T07:56:07;11.02;;;4.97;;
43771;SDS011;59066;54.782;32.024;2022-11-15T07:58:54;28.48;;;7.10;;
43771;SDS011;59066;54.782;32.024;2022-11-15T08:01:39;15.55;;;6.45;;
43771;SDS011;59066;54.782;32.024;2022-11-15T08:04:25;47.45;;;26.08;;
43771;SDS011;59066;54.782;32.024;2022-11-15T08:07:13;12.70;;;6.72;;
43771;SDS011;59066;54.782;32.024;2022-11-15T08:09:59;12.77;;;6.88;;
43771;SDS011;59066;54.782;32.024;2022-11-15T08:12:46;9.75;;;6.47;;
43771;SDS011;59066;54.782;32.024;2022-11-15T08:15:32;23.27;;;7.65;;
43771;SDS011;59066;54.782;32.024;2022-11-15T08:21:05;25.60;;;7.03;;
43771;SDS011;59066;54.782;32.024;2022-11-15T08:23:51;16.77;;;8.07;;
43771;SDS011;59066;54.782;32.024;2022-11-15T08:26:37;17.50;;;9.52;;
43771;SDS011;59066;54.782;32.024;2022-11-15T08:29:24;21.05;;;7.72;;
43771;SDS011;59066;54.782;32.024;2022-11-15T08:32:10;23.48;;;7.30;;
43771;SDS011;59066;54.782;32.024;2022-11-15T08:34:57;33.97;;;9.32;;
43771;SDS011;59066;54.782;32.024;2022-11-15T08:37:42;16.52;;;7.82;;
43771;SDS011;59066;54.782;32.024;2022-11-15T08:40:28;18.35;;;8.65;;
43771;SDS011;59066;54.782;32.024;2022-11-15T08:43:14;16.38;;;8.07;;
43771;SDS011;59066;54.782;32.024;2022-11-15T08:46:00;9.88;;;5.20;;
43771;SDS011;59066;54.782;32.024;2022-11-15T08:48:46;18.05;;;7.40;;
43771;SDS011;59066;54.782;32.024;2022-11-15T08:51:32;52.60;;;11.80;;
43771;SDS011;59066;54.782;32.024;2022-11-15T08:54:18;16.95;;;7.47;;
43771;SDS011;59066;54.782;32.024;2022-11-15T08:57:04;16.20;;;5.57;;
43771;SDS011;59066;54.782;32.024;2022-11-15T08:59:51;27.23;;;8.60;;
43771;SDS011;59066;54.782;32.024;2022-11-15T09:02:38;38.57;;;18.67;;
43771;SDS011;59066;54.782;32.024;2022-11-15T09:05:25;13.15;;;8.43;;
43771;SDS011;59066;54.782;32.024;2022-11-15T09:08:11;14.52;;;7.70;;
43771;SDS011;59066;54.782;32.024;2022-11-15T09:11:18;21.35;;;10.27;;
43771;SDS011;59066;54.782;32.024;2022-11-15T09:14:06;40.38;;;10.73;;
43771;SDS011;59066;54.782;32.024;2022-11-15T09:16:52;17.10;;;6.68;;
43771;SDS011;59066;54.782;32.024;2022-11-15T09:19:38;15.20;;;6.90;;
43771;SDS011;59066;54.782;32.024;2022-11-15T09:22:24;18.95;;;7.97;;
43771;SDS011;59066;54.782;32.024;2022-11-15T09:25:10;12.18;;;6.05;;
43771;SDS011;59066;54.782;32.024;2022-11-15T09:27:56;24.67;;;10.68;;
43771;SDS011;59066;54.782;32.024;2022-11-15T09:30:42;12.32;;;7.82;;
43771;SDS011;59066;54.782;32.024;2022-11-15T09:33:29;20.07;;;8.50;;
43771;SDS011;59066;54.782;32.024;2022-11-15T09:36:15;16.38;;;7.38;;
43771;SDS011;59066;54.782;32.024;2022-11-15T09:39:02;23.35;;;6.93;;
43771;SDS011;59066;54.782;32.024;2022-11-15T09:51:37;21.20;;;8.20;;
43771;SDS011;59066;54.782;32.024;2022-11-15T10:00:25;22.85;;;9.23;;
43771;SDS011;59066;54.782;32.024;2022-11-15T10:05:55;19.13;;;8.32;;
43771;SDS011;59066;54.782;32.024;2022-11-15T10:11:20;25.98;;;10.70;;
43771;SDS011;59066;54.782;32.024;2022-11-15T10:14:15;30.13;;;9.35;;
43771;SDS011;59066;54.782;32.024;2022-11-15T10:19:59;16.88;;;9.60;;
43771;SDS011;59066;54.782;32.024;2022-11-15T10:27:56;17.83;;;7.72;;
43771;SDS011;59066;54.782;32.024;2022-11-15T10:30:45;25.60;;;10.18;;
43771;SDS011;59066;54.782;32.024;2022-11-15T10:46:43;26.92;;;12.85;;
43771;SDS011;59066;54.782;32.024;2022-11-15T10:49:15;28.77;;;12.05;;
43771;SDS011;59066;54.782;32.024;2022-11-15T10:54:24;25.98;;;12.25;;
43771;SDS011;59066;54.782;32.024;2022-11-15T10:56:58;34.30;;;12.75;;
43771;SDS011;59066;54.782;32.024;2022-11-15T10:59:28;22.30;;;11.45;;
43771;SDS011;59066;54.782;32.024;2022-11-15T11:05:36;26.80;;;11.25;;
43771;SDS011;59066;54.782;32.024;2022-11-15T11:10:54;26.25;;;11.63;;
43771;SDS011;59066;54.782;32.024;2022-11-15T11:13:29;24.48;;;11.93;;
43771;SDS011;59066;54.782;32.024;2022-11-15T11:21:17;19.27;;;10.82;;
43771;SDS011;59066;54.782;32.024;2022-11-15T11:24:43;23.15;;;14.27;;
43771;SDS011;59066;54.782;32.024;2022-11-15T11:26:54;30.38;;;15.15;;
43771;SDS011;59066;54.782;32.024;2022-11-15T11:34:58;21.73;;;11.85;;
43771;SDS011;59066;54.782;32.024;2022-11-15T11:37:47;20.95;;;13.27;;
43771;SDS011;59066;54.782;32.024;2022-11-15T11:49:09;26.92;;;14.27;;
43771;SDS011;59066;54.782;32.024;2022-11-15T11:51:43;27.85;;;14.45;;
43771;SDS011;59066;54.782;32.024;2022-11-15T11:56:44;22.92;;;12.65;;
43771;SDS011;59066;54.782;32.024;2022-11-15T12:01:58;27.15;;;13.27;;
43771;SDS011;59066;54.782;32.024;2022-11-15T12:04:49;26.20;;;15.63;;
43771;SDS011;59066;54.782;32.024;2022-11-15T12:07:27;24.48;;;13.13;;
43771;SDS011;59066;54.782;32.024;2022-11-15T12:10:01;28.02;;;15.05;;
43771;SDS011;59066;54.782;32.024;2022-11-15T12:12:36;20.63;;;11.57;;
43771;SDS011;59066;54.782;32.024;2022-11-15T12:17:35;23.77;;;12.48;;
43771;SDS011;59066;54.782;32.024;2022-11-15T12:20:20;28.73;;;13.63;;
43771;SDS011;59066;54.782;32.024;2022-11-15T12:30:54;29.83;;;16.40;;
43771;SDS011;59066;54.782;32.024;2022-11-15T12:33:32;26.20;;;14.45;;
43771;SDS011;59066;54.782;32.024;2022-11-15T12:36:10;23.50;;;13.60;;
43771;SDS011;59066;54.782;32.024;2022-11-15T12:44:11;19.45;;;11.40;;
43771;SDS011;59066;54.782;32.024;2022-11-15T13:17:47;24.17;;;12.25;;
43771;SDS011;59066;54.782;32.024;2022-11-15T13:20:23;22.80;;;13.00;;
43771;SDS011;59066;54.782;32.024;2022-11-15T13:33:17;23.88;;;13.98;;
43771;SDS011;59066;54.782;32.024;2022-11-15T13:35:47;22.15;;;14.23;;
43771;SDS011;59066;54.782;32.024;2022-11-15T13:38:35;20.58;;;12.60;;
43771;SDS011;59066;54.782;32.024;2022-11-15T13:41:18;40.83;;;22.48;;
43771;SDS011;59066;54.782;32.024;2022-11-15T13:43:48;22.92;;;13.05;;
43771;SDS011;59066;54.782;32.024;2022-11-15T13:46:18;24.25;;;14.70;;
43771;SDS011;59066;54.782;32.024;2022-11-15T13:49:08;24.03;;;13.83;;
43771;SDS011;59066;54.782;32.024;2022-11-15T13:52:00;27.67;;;15.97;;
43771;SDS011;59066;54.782;32.024;2022-11-15T13:54:35;20.25;;;12.90;;
43771;SDS011;59066;54.782;32.024;2022-11-15T14:02:21;23.67;;;13.93;;
43771;SDS011;59066;54.782;32.024;2022-11-15T14:04:56;21.05;;;13.75;;
43771;SDS011;59066;54.782;32.024;2022-11-15T14:07:27;21.77;;;10.90;;
43771;SDS011;59066;54.782;32.024;2022-11-15T14:10:02;21.30;;;13.02;;
43771;SDS011;59066;54.782;32.024;2022-11-15T14:12:51;21.90;;;12.13;;
43771;SDS011;59066;54.782;32.024;2022-11-15T14:17:55;20.23;;;11.73;;
43771;SDS011;59066;54.782;32.024;2022-11-15T14:20:29;17.17;;;9.00;;
43771;SDS011;59066;54.782;32.024;2022-11-15T14:23:00;17.17;;;9.20;;
43771;SDS011;59066;54.782;32.024;2022-11-15T14:25:35;15.02;;;9.18;;
43771;SDS011;59066;54.782;32.024;2022-11-15T14:30:45;18.60;;;9.43;;
43771;SDS011;59066;54.782;32.024;2022-11-15T14:35:46;14.30;;;8.38;;
43771;SDS011;59066;54.782;32.024;2022-11-15T14:38:13;12.57;;;7.47;;
43771;SDS011;59066;54.782;32.024;2022-11-15T14:40:41;15.60;;;7.30;;
43771;SDS011;59066;54.782;32.024;2022-11-15T14:43:09;12.68;;;7.05;;
43771;SDS011;59066;54.782;32.024;2022-11-15T14:45:38;13.15;;;7.35;;
43771;SDS011;59066;54.782;32.024;2022-11-15T14:48:06;10.75;;;7.18;;
43771;SDS011;59066;54.782;32.024;2022-11-15T14:50:34;12.02;;;6.40;;
43771;SDS011;59066;54.782;32.024;2022-11-15T14:53:02;13.18;;;8.27;;
43771;SDS011;59066;54.782;32.024;2022-11-15T14:55:32;15.07;;;8.73;;
43771;SDS011;59066;54.782;32.024;2022-11-15T14:58:03;13.38;;;7.72;;
43771;SDS011;59066;54.782;32.024;2022-11-15T15:00:31;12.80;;;7.43;;
43771;SDS011;59066;54.782;32.024;2022-11-15T15:03:01;10.07;;;6.47;;
43771;SDS011;59066;54.782;32.024;2022-11-15T15:05:33;13.25;;;8.68;;
43771;SDS011;59066;54.782;32.024;2022-11-15T15:08:05;12.68;;;6.07;;
43771;SDS011;59066;54.782;32.024;2022-11-15T15:10:34;13.35;;;7.50;;
43771;SDS011;59066;54.782;32.024;2022-11-15T15:13:16;11.57;;;6.75;;
43771;SDS011;59066;54.782;32.024;2022-11-15T15:15:46;11.18;;;6.72;;
43771;SDS011;59066;54.782;32.024;2022-11-15T15:18:15;12.85;;;8.10;;
43771;SDS011;59066;54.782;32.024;2022-11-15T15:20:43;11.57;;;7.35;;
43771;SDS011;59066;54.782;32.024;2022-11-15T15:23:16;11.38;;;6.32;;
43771;SDS011;59066;54.782;32.024;2022-11-15T15:25:46;11.70;;;6.35;;
43771;SDS011;59066;54.782;32.024;2022-11-15T15:28:15;12.77;;;7.90;;
43771;SDS011;59066;54.782;32.024;2022-11-15T15:30:43;8.02;;;4.70;;
43771;SDS011;59066;54.782;32.024;2022-11-15T15:33:11;12.43;;;5.28;;
43771;SDS011;59066;54.782;32.024;2022-11-15T15:35:38;11.90;;;6.88;;
43771;SDS011;59066;54.782;32.024;2022-11-15T15:38:06;12.77;;;7.32;;
43771;SDS011;59066;54.782;32.024;2022-11-15T15:40:33;15.68;;;10.05;;
43771;SDS011;59066;54.782;32.024;2022-11-15T15:43:01;15.13;;;8.88;;
43771;SDS011;59066;54.782;32.024;2022-11-15T15:45:28;23.88;;;13.07;;
43771;SDS011;59066;54.782;32.024;2022-11-15T15:47:56;13.80;;;8.00;;
43771;SDS011;59066;54.782;32.024;2022-11-15T15:50:28;15.20;;;7.15;;
43771;SDS011;59066;54.782;32.024;2022-11-15T15:52:59;14.57;;;7.57;;
43771;SDS011;59066;54.782;32.024;2022-11-15T15:55:29;16.42;;;8.07;;
43771;SDS011;59066;54.782;32.024;2022-11-15T15:57:57;14.07;;;7.15;;
43771;SDS011;59066;54.782;32.024;2022-11-15T16:00:25;14.07;;;8.13;;
43771;SDS011;59066;54.782;32.024;2022-11-15T16:02:53;14.43;;;7.53;;
43771;SDS011;59066;54.782;32.024;2022-11-15T16:05:21;17.80;;;8.75;;
43771;SDS011;59066;54.782;32.024;2022-11-15T16:07:49;16.73;;;8.68;;
43771;SDS011;59066;54.782;32.024;2022-11-15T16:12:55;17.38;;;8.77;;
43771;SDS011;59066;54.782;32.024;2022-11-15T16:15:24;14.25;;;8.00;;
43771;SDS011;59066;54.782;32.024;2022-11-15T16:17:54;15.40;;;8.60;;
43771;SDS011;59066;54.782;32.024;2022-11-15T16:20:33;14.27;;;7.93;;
43771;SDS011;59066;54.782;32.024;2022-11-15T16:23:02;15.02;;;8.40;;
43771;SDS011;59066;54.782;32.024;2022-11-15T16:30:44;17.92;;;9.68;;
43771;SDS011;59066;54.782;32.024;2022-11-15T16:33:11;24.33;;;14.15;;
43771;SDS011;59066;54.782;32.024;2022-11-15T16:35:39;33.55;;;17.65;;
43771;SDS011;59066;54.782;32.024;2022-11-15T16:38:08;17.90;;;9.85;;
43771;SDS011;59066;54.782;32.024;2022-11-15T16:40:41;18.23;;;11.15;;
43771;SDS011;59066;54.782;32.024;2022-11-15T16:43:09;16.27;;;9.77;;
43771;SDS011;59066;54.782;32.024;2022-11-15T16:45:37;15.40;;;8.25;;
43771;SDS011;59066;54.782;32.024;2022-11-15T16:48:04;14.95;;;8.32;;
43771;SDS011;59066;54.782;32.024;2022-11-15T16:50:33;13.20;;;8.00;;
43771;SDS011;59066;54.782;32.024;2022-11-15T16:53:07;12.55;;;7.47;;
43771;SDS011;59066;54.782;32.024;2022-11-15T16:55:35;16.77;;;8.45;;
43771;SDS011;59066;54.782;32.024;2022-11-15T16:58:02;14.55;;;8.20;;
43771;SDS011;59066;54.782;32.024;2022-11-15T17:00:29;13.13;;;7.57;;
43771;SDS011;59066;54.782;32.024;2022-11-15T17:02:57;13.35;;;7.00;;
43771;SDS011;59066;54.782;32.024;2022-11-15T17:05:25;13.02;;;8.48;;
43771;SDS011;59066;54.782;32.024;2022-11-15T17:07:53;13.82;;;8.68;;
43771;SDS011;59066;54.782;32.024;2022-11-15T17:10:21;14.35;;;8.55;;
43771;SDS011;59066;54.782;32.024;2022-11-15T17:12:50;21.17;;;10.10;;
43771;SDS011;59066;54.782;32.024;2022-11-15T17:15:19;14.63;;;8.00;;
43771;SDS011;59066;54.782;32.024;2022-11-15T17:17:53;13.93;;;8.23;;
43771;SDS011;59066;54.782;32.024;2022-11-15T17:20:22;15.48;;;9.10;;
43771;SDS011;59066;54.782;32.024;2022-11-15T17:22:50;17.17;;;9.32;;
43771;SDS011;59066;54.782;32.024;2022-11-15T17:25:18;15.25;;;8.35;;
43771;SDS011;59066;54.782;32.024;2022-11-15T17:27:46;13.30;;;8.13;;
43771;SDS011;59066;54.782;32.024;2022-11-15T17:30:14;14.05;;;8.15;;
43771;SDS011;59066;54.782;32.024;2022-11-15T17:32:42;12.48;;;7.93;;
43771;SDS011;59066;54.782;32.024;2022-11-15T17:35:10;13.02;;;8.02;;
43771;SDS011;59066;54.782;32.024;2022-11-15T17:37:41;14.25;;;8.02;;
43771;SDS011;59066;54.782;32.024;2022-11-15T17:40:09;12.30;;;7.55;;
43771;SDS011;59066;54.782;32.024;2022-11-15T17:42:39;14.00;;;8.30;;
43771;SDS011;59066;54.782;32.024;2022-11-15T17:45:07;13.55;;;7.78;;
43771;SDS011;59066;54.782;32.024;2022-11-15T17:47:36;14.85;;;7.93;;
43771;SDS011;59066;54.782;32.024;2022-11-15T17:50:04;13.60;;;7.78;;
43771;SDS011;59066;54.782;32.024;2022-11-15T17:52:31;12.52;;;7.57;;
43771;SDS011;59066;54.782;32.024;2022-11-15T17:54:59;15.30;;;9.00;;
43771;SDS011;59066;54.782;32.024;2022-11-15T17:57:26;16.33;;;9.07;;
43771;SDS011;59066;54.782;32.024;2022-11-15T17:59:54;13.57;;;8.60;;
43771;SDS011;59066;54.782;32.024;2022-11-15T18:02:21;14.77;;;8.15;;
43771;SDS011;59066;54.782;32.024;2022-11-15T18:04:49;15.82;;;8.65;;
43771;SDS011;59066;54.782;32.024;2022-11-15T18:07:16;13.40;;;7.65;;
43771;SDS011;59066;54.782;32.024;2022-11-15T18:09:51;30.70;;;16.30;;
43771;SDS011;59066;54.782;32.024;2022-11-15T18:12:18;11.55;;;7.13;;
43771;SDS011;59066;54.782;32.024;2022-11-15T18:14:46;12.70;;;7.40;;
43771;SDS011;59066;54.782;32.024;2022-11-15T18:17:13;12.85;;;7.35;;
43771;SDS011;59066;54.782;32.024;2022-11-15T18:19:40;16.08;;;8.90;;
43771;SDS011;59066;54.782;32.024;2022-11-15T18:22:08;14.93;;;7.80;;
43771;SDS011;59066;54.782;32.024;2022-11-15T18:24:35;12.77;;;8.38;;
43771;SDS011;59066;54.782;32.024;2022-11-15T18:27:08;13.32;;;7.32;;
43771;SDS011;59066;54.782;32.024;2022-11-15T18:29:35;14.80;;;9.02;;
43771;SDS011;59066;54.782;32.024;2022-11-15T18:32:04;13.50;;;8.25;;
43771;SDS011;59066;54.782;32.024;2022-11-15T18:34:37;11.07;;;6.50;;
43771;SDS011;59066;54.782;32.024;2022-11-15T18:37:04;9.65;;;6.40;;
43771;SDS011;59066;54.782;32.024;2022-11-15T18:39:32;15.30;;;8.15;;
43771;SDS011;59066;54.782;32.024;2022-11-15T18:41:59;12.32;;;7.05;;
43771;SDS011;59066;54.782;32.024;2022-11-15T18:44:27;12.95;;;7.85;;
43771;SDS011;59066;54.782;32.024;2022-11-15T18:46:56;15.05;;;7.80;;
43771;SDS011;59066;54.782;32.024;2022-11-15T18:49:24;13.82;;;8.45;;
43771;SDS011;59066;54.782;32.024;2022-11-15T18:51:51;12.32;;;7.75;;
43771;SDS011;59066;54.782;32.024;2022-11-15T18:54:18;14.25;;;9.20;;
43771;SDS011;59066;54.782;32.024;2022-11-15T18:56:46;14.55;;;8.38;;
43771;SDS011;59066;54.782;32.024;2022-11-15T18:59:13;14.27;;;9.10;;
43771;SDS011;59066;54.782;32.024;2022-11-15T19:01:42;14.68;;;9.38;;